createdAt,value
2019-06-26T00:01:47.697Z,61.97
2019-06-26T00:04:17.069Z,64.10
2019-06-26T00:06:46.484Z,58.97
2019-06-26T00:09:15.876Z,58.20
2019-06-26T00:11:45.315Z,57.43
2019-06-26T00:14:14.745Z,58.50
2019-06-26T00:16:44.179Z,50.90
2019-06-26T00:19:13.600Z,53.23
2019-06-26T00:21:42.959Z,56.70
2019-06-26T00:24:12.433Z,54.57
2019-06-26T00:29:21.665Z,52.43
2019-06-26T00:31:51.083Z,52.57
2019-06-26T00:34:20.507Z,53.10
2019-06-26T00:36:49.928Z,52.30
2019-06-26T00:39:19.344Z,53.63
2019-06-26T00:41:48.810Z,52.57
2019-06-26T00:44:18.201Z,53.57
2019-06-26T00:46:47.609Z,52.23
2019-06-26T00:49:17.032Z,58.10
2019-06-26T00:51:46.444Z,55.43
2019-06-26T00:54:15.844Z,57.13
2019-06-26T00:56:45.208Z,60.20
2019-06-26T00:59:14.574Z,58.37
2019-06-26T01:01:43.940Z,55.87
2019-06-26T01:04:17.189Z,57.10
2019-06-26T01:06:46.476Z,55.43
2019-06-26T01:09:16.064Z,56.53
2019-06-26T01:11:45.461Z,58.13
2019-06-26T01:14:14.811Z,61.33
2019-06-26T01:16:44.226Z,62.23
2019-06-26T01:19:13.659Z,57.00
2019-06-26T01:21:43.122Z,58.37
2019-06-26T01:24:12.508Z,61.27
2019-06-26T01:26:41.925Z,63.97
2019-06-26T01:29:11.304Z,66.90
2019-06-26T01:31:40.709Z,67.67
2019-06-26T01:34:10.112Z,67.77
2019-06-26T01:36:39.465Z,64.50
2019-06-26T01:39:08.885Z,70.27
2019-06-26T01:41:38.279Z,70.40
2019-06-26T01:44:14.610Z,69.87
2019-06-26T01:46:39.600Z,71.17
2019-06-26T01:49:09.071Z,77.37
2019-06-26T01:51:38.472Z,69.90
2019-06-26T01:54:07.873Z,76.83
2019-06-26T01:56:37.287Z,75.40
2019-06-26T01:59:06.689Z,81.73
2019-06-26T02:01:47.856Z,74.00
2019-06-26T02:04:17.164Z,70.93
2019-06-26T02:06:46.577Z,75.97
2019-06-26T02:09:15.982Z,74.37
2019-06-26T02:11:45.404Z,82.13
2019-06-26T02:14:30.017Z,83.73
2019-06-26T02:16:45.755Z,88.67
2019-06-26T02:19:16.089Z,94.27
2019-06-26T02:21:45.463Z,89.57
2019-06-26T02:24:14.838Z,102.60
2019-06-26T02:26:44.265Z,107.47
2019-06-26T02:29:13.718Z,109.37
2019-06-26T02:31:43.061Z,107.40
2019-06-26T02:34:12.850Z,110.40
2019-06-26T02:36:42.283Z,109.83
2019-06-26T02:39:11.699Z,113.83
2019-06-26T02:41:41.120Z,109.77
2019-06-26T02:44:10.519Z,115.03
2019-06-26T02:46:39.865Z,100.77
2019-06-26T02:49:09.319Z,104.53
2019-06-26T02:51:38.740Z,108.53
2019-06-26T02:54:08.169Z,108.97
2019-06-26T02:56:37.589Z,118.13
2019-06-26T02:59:07.002Z,129.00
2019-06-26T03:01:36.402Z,129.20
2019-06-26T03:04:05.839Z,125.27
2019-06-26T03:06:35.275Z,138.10
2019-06-26T03:09:06.479Z,130.90
2019-06-26T03:11:35.830Z,137.47
2019-06-26T03:14:05.258Z,136.97
2019-06-26T03:16:34.670Z,134.60
2019-06-26T03:19:04.092Z,131.53
2019-06-26T03:21:33.503Z,137.03
2019-06-26T03:24:02.959Z,129.00
2019-06-26T03:26:32.399Z,139.10
2019-06-26T03:29:01.818Z,141.23
2019-06-26T03:31:31.268Z,134.53
2019-06-26T03:34:00.664Z,130.63
2019-06-26T03:36:30.072Z,133.10
2019-06-26T03:38:59.507Z,132.90
2019-06-26T03:41:28.910Z,130.77
2019-06-26T03:43:58.237Z,131.07
2019-06-26T03:46:27.650Z,132.90
2019-06-26T03:48:57.057Z,119.63
2019-06-26T03:51:26.463Z,123.60
2019-06-26T03:53:55.865Z,121.07
2019-06-26T03:56:25.281Z,117.37
2019-06-26T03:58:54.747Z,118.20
2019-06-26T04:01:24.170Z,115.80
2019-06-26T04:03:57.172Z,115.73
2019-06-26T04:06:24.696Z,108.57
2019-06-26T04:08:54.046Z,118.30
2019-06-26T04:11:23.399Z,115.87
2019-06-26T04:13:52.827Z,108.80
2019-06-26T04:16:22.251Z,109.60
2019-06-26T04:18:51.693Z,113.90
2019-06-26T04:21:21.149Z,115.40
2019-06-26T04:23:50.573Z,104.93
2019-06-26T04:28:48.553Z,105.70
2019-06-26T04:31:17.912Z,104.47
2019-06-26T04:33:47.336Z,106.47
2019-06-26T04:36:16.806Z,104.67
2019-06-26T04:38:46.234Z,95.63
2019-06-26T04:41:15.660Z,101.47
2019-06-26T04:43:45.106Z,99.80
2019-06-26T04:46:14.504Z,99.97
2019-06-26T04:48:43.938Z,107.70
2019-06-26T04:51:13.347Z,108.40
2019-06-26T04:53:42.757Z,101.30
2019-06-26T04:56:12.142Z,107.70
2019-06-26T04:58:41.600Z,103.63
2019-06-26T05:01:11.024Z,102.70
2019-06-26T05:03:40.442Z,106.53
2019-06-26T05:06:09.869Z,104.90
2019-06-26T05:08:39.292Z,99.30
2019-06-26T05:11:12.355Z,102.60
2019-06-26T05:13:39.803Z,96.00
2019-06-26T05:16:14.837Z,97.87
2019-06-26T05:18:40.301Z,106.87
2019-06-26T05:21:09.814Z,113.33
2019-06-26T05:23:39.286Z,108.93
2019-06-26T05:26:08.685Z,115.10
2019-06-26T05:28:38.130Z,109.50
2019-06-26T05:31:07.581Z,108.30
2019-06-26T05:33:37.062Z,110.73
2019-06-26T05:36:06.495Z,110.93
2019-06-26T05:38:35.879Z,108.43
2019-06-26T05:41:05.443Z,105.07
2019-06-26T05:43:34.874Z,105.67
2019-06-26T05:46:04.327Z,105.17
2019-06-26T05:48:33.804Z,101.23
2019-06-26T05:51:03.136Z,98.57
2019-06-26T05:53:32.544Z,91.57
2019-06-26T05:56:01.974Z,96.73
2019-06-26T05:58:31.568Z,92.70
2019-06-26T06:01:01.012Z,97.83
2019-06-26T06:03:30.434Z,98.17
2019-06-26T06:05:59.814Z,95.07
2019-06-26T06:08:29.276Z,100.20
2019-06-26T06:10:58.686Z,98.87
2019-06-26T06:13:28.099Z,98.27
2019-06-26T06:15:57.541Z,94.63
2019-06-26T06:18:26.956Z,95.50
2019-06-26T06:20:56.372Z,101.13
2019-06-26T06:23:25.792Z,98.97
2019-06-26T06:25:55.282Z,97.63
2019-06-26T06:28:24.791Z,100.50
2019-06-26T06:30:54.267Z,98.37
2019-06-26T06:33:23.666Z,94.70
2019-06-26T06:35:53.228Z,97.17
2019-06-26T06:38:22.611Z,96.30
2019-06-26T06:40:52.002Z,94.37
2019-06-26T06:43:25.300Z,95.40
2019-06-26T06:45:53.801Z,90.90
2019-06-26T06:48:23.141Z,93.97
2019-06-26T06:50:52.733Z,91.57
2019-06-26T06:53:22.198Z,88.90
2019-06-26T06:55:51.608Z,90.33
2019-06-26T06:58:21.252Z,91.43
2019-06-26T07:00:50.634Z,86.57
2019-06-26T07:03:20.079Z,87.13
2019-06-26T07:05:49.497Z,92.30
2019-06-26T07:08:18.950Z,87.70
2019-06-26T07:10:48.383Z,81.27
2019-06-26T07:13:17.794Z,80.33
2019-06-26T07:15:47.240Z,73.53
2019-06-26T07:18:16.670Z,84.03
2019-06-26T07:20:46.005Z,81.00
2019-06-26T07:23:15.438Z,80.37
2019-06-26T07:25:44.983Z,77.37
2019-06-26T07:28:14.662Z,75.47
2019-06-26T07:30:44.066Z,78.07
2019-06-26T07:33:14.753Z,80.73
2019-06-26T07:35:44.230Z,76.50
2019-06-26T07:38:13.895Z,80.23
2019-06-26T07:40:43.335Z,84.27
2019-06-26T07:43:16.279Z,81.90
2019-06-26T07:45:43.856Z,87.30
2019-06-26T07:48:13.212Z,82.03
2019-06-26T07:50:42.893Z,77.57
2019-06-26T07:53:31.406Z,73.07
2019-06-26T07:56:00.928Z,80.53
2019-06-26T07:58:30.437Z,85.90
2019-06-26T08:00:59.877Z,77.17
2019-06-26T08:03:29.335Z,80.73
2019-06-26T08:05:58.877Z,80.47
2019-06-26T08:08:28.503Z,73.83
2019-06-26T08:10:57.965Z,77.17
2019-06-26T08:13:27.557Z,72.13
2019-06-26T08:15:57.094Z,71.03
2019-06-26T08:18:26.589Z,69.93
2019-06-26T08:21:11.409Z,75.97
2019-06-26T08:23:27.226Z,70.47
2019-06-26T08:25:56.727Z,70.00
2019-06-26T08:28:26.198Z,65.57
2019-06-26T08:30:55.673Z,64.47
2019-06-26T08:33:25.207Z,67.27
2019-06-26T08:35:54.766Z,66.77
2019-06-26T08:38:24.296Z,62.37
2019-06-26T08:40:53.813Z,66.97
2019-06-26T08:43:23.356Z,64.77
2019-06-26T08:45:54.272Z,64.47
2019-06-26T08:48:39.123Z,59.23
2019-06-26T08:50:55.173Z,59.83
2019-06-26T08:53:24.676Z,60.67
2019-06-26T08:55:54.228Z,64.77
2019-06-26T08:58:23.721Z,63.17
2019-06-26T09:00:53.248Z,61.43
2019-06-26T09:03:22.794Z,64.53
2019-06-26T09:05:52.245Z,57.17
2019-06-26T09:08:21.856Z,54.17
2019-06-26T09:10:51.509Z,55.93
2019-06-26T09:13:21.041Z,49.97
2019-06-26T09:15:50.518Z,53.53
2019-06-26T09:18:34.339Z,50.97
2019-06-26T09:20:51.147Z,44.87
2019-06-26T09:23:20.679Z,47.63
2019-06-26T09:25:50.255Z,45.47
2019-06-26T09:28:19.859Z,44.53
2019-06-26T09:30:49.620Z,47.60
2019-06-26T09:33:19.256Z,45.23
2019-06-26T09:35:48.793Z,47.67
2019-06-26T09:38:18.352Z,43.87
2019-06-26T09:40:47.944Z,45.40
2019-06-26T09:43:17.504Z,42.30
2019-06-26T09:45:46.981Z,46.57
2019-06-26T09:48:16.587Z,42.27
2019-06-26T09:50:46.066Z,42.90
2019-06-26T09:53:15.695Z,42.13
2019-06-26T09:55:45.208Z,41.73
2019-06-26T09:58:14.676Z,44.43
2019-06-26T10:00:44.191Z,46.67
2019-06-26T10:03:13.791Z,43.03
2019-06-26T10:05:43.392Z,37.47
2019-06-26T10:08:12.897Z,37.50
2019-06-26T10:10:42.536Z,35.67
2019-06-26T10:13:12.220Z,35.83
2019-06-26T10:15:41.731Z,34.60
2019-06-26T10:18:11.215Z,38.00
2019-06-26T10:20:40.693Z,32.90
2019-06-26T10:23:10.208Z,37.10
2019-06-26T10:25:39.757Z,34.70
2019-06-26T10:28:09.526Z,32.90
2019-06-26T10:30:39.601Z,33.03
2019-06-26T10:33:09.118Z,29.87
2019-06-26T10:35:38.664Z,33.27
2019-06-26T10:38:08.253Z,33.50
2019-06-26T10:40:37.818Z,30.50
2019-06-26T10:43:07.325Z,32.57
2019-06-26T10:45:36.847Z,29.60
2019-06-26T10:48:06.660Z,31.73
2019-06-26T10:50:47.844Z,26.80
2019-06-26T10:53:07.361Z,27.20
2019-06-26T10:55:36.887Z,29.07
2019-06-26T10:58:06.365Z,24.37
2019-06-26T11:00:36.110Z,30.30
2019-06-26T11:03:05.725Z,30.23
2019-06-26T11:05:35.203Z,26.00
2019-06-26T11:08:04.811Z,26.00
2019-06-26T11:13:39.974Z,26.20
2019-06-26T11:16:09.918Z,23.83
2019-06-26T11:18:39.474Z,21.30
2019-06-26T11:21:09.076Z,21.53
2019-06-26T11:23:38.733Z,23.23
2019-06-26T11:26:08.263Z,26.27
2019-06-26T11:28:37.695Z,24.27
2019-06-26T11:31:12.314Z,23.23
2019-06-26T11:33:41.853Z,23.23
2019-06-26T11:36:11.510Z,22.47
2019-06-26T11:38:41.189Z,20.33
2019-06-26T11:41:10.621Z,19.20
2019-06-26T11:43:40.066Z,20.77
2019-06-26T11:46:12.071Z,21.33
2019-06-26T11:49:06.931Z,20.77
2019-06-26T11:51:38.194Z,18.70
2019-06-26T11:54:09.206Z,19.33
2019-06-26T11:56:38.730Z,19.27
2019-06-26T11:59:08.285Z,17.60
2019-06-26T12:01:37.877Z,20.67
2019-06-26T12:04:07.644Z,19.87
2019-06-26T12:06:37.180Z,18.83
2019-06-26T12:09:09.059Z,18.57
2019-06-26T12:11:38.528Z,20.60
2019-06-26T12:14:08.079Z,19.63
2019-06-26T12:16:37.567Z,18.33
2019-06-26T12:19:07.127Z,18.53
2019-06-26T12:21:36.615Z,17.97
2019-06-26T12:24:06.098Z,20.10
2019-06-26T12:26:35.571Z,19.77
2019-06-26T12:32:00.777Z,16.63
2019-06-26T12:34:32.387Z,18.40
2019-06-26T12:37:01.892Z,17.00
2019-06-26T12:39:31.353Z,16.33
2019-06-26T12:42:00.831Z,16.20
2019-06-26T12:44:30.481Z,19.13
2019-06-26T12:47:00.049Z,16.93
2019-06-26T12:49:29.562Z,16.50
2019-06-26T12:51:59.045Z,16.60
2019-06-26T12:54:28.566Z,15.20
2019-06-26T12:56:58.027Z,19.63
2019-06-26T12:59:27.596Z,19.37
2019-06-26T13:01:57.164Z,18.37
2019-06-26T13:04:26.693Z,18.63
2019-06-26T13:06:58.913Z,18.50
2019-06-26T13:09:27.285Z,17.50
2019-06-26T13:11:56.765Z,17.80
2019-06-26T13:14:26.221Z,19.33
2019-06-26T13:20:09.317Z,15.57
2019-06-26T13:22:36.645Z,14.53
2019-06-26T13:25:06.661Z,15.30
2019-06-26T13:27:36.223Z,16.50
2019-06-26T13:30:06.224Z,16.03
2019-06-26T13:32:35.765Z,16.77
2019-06-26T13:35:05.469Z,15.43
2019-06-26T13:37:34.935Z,22.03
2019-06-26T13:40:04.996Z,16.03
2019-06-26T13:42:34.856Z,18.93
2019-06-26T13:45:05.094Z,17.57
2019-06-26T13:47:34.669Z,16.37
2019-06-26T13:50:04.172Z,19.47
2019-06-26T13:52:33.990Z,15.25
2019-06-26T13:55:03.488Z,16.32
2019-06-26T13:57:33.080Z,15.53
2019-06-26T14:02:59.959Z,13.60
2019-06-26T14:05:29.722Z,15.07
2019-06-26T14:07:59.253Z,15.03
2019-06-26T14:10:28.933Z,18.10
2019-06-26T14:12:58.403Z,13.72
2019-06-26T14:15:27.967Z,15.83
2019-06-26T14:17:57.564Z,13.10
2019-06-26T14:20:27.187Z,13.90
2019-06-26T14:22:56.676Z,12.73
2019-06-26T14:25:26.328Z,13.97
2019-06-26T14:27:55.848Z,16.37
2019-06-26T14:30:27.842Z,13.58
2019-06-26T14:32:56.506Z,14.07
2019-06-26T14:35:25.998Z,12.17
2019-06-26T14:37:55.535Z,16.63
2019-06-26T14:40:25.077Z,12.58
2019-06-26T14:42:54.604Z,15.53
2019-06-26T14:45:24.091Z,13.53
2019-06-26T14:47:53.724Z,12.70
2019-06-26T14:50:23.304Z,16.90
2019-06-26T14:52:52.832Z,13.10
2019-06-26T14:55:22.651Z,11.97
2019-06-26T14:57:52.138Z,13.17
2019-06-26T15:00:22.796Z,11.43
2019-06-26T15:05:51.533Z,10.82
2019-06-26T15:08:22.861Z,12.07
2019-06-26T15:10:52.564Z,11.60
2019-06-26T15:13:22.145Z,10.57
2019-06-26T15:15:54.661Z,9.87
2019-06-26T15:18:22.920Z,11.17
2019-06-26T15:20:52.407Z,11.07
2019-06-26T15:23:21.915Z,11.03
2019-06-26T15:25:51.995Z,9.13
2019-06-26T15:28:21.522Z,11.43
2019-06-26T15:30:51.270Z,30.87
2019-06-26T15:33:20.789Z,10.77
2019-06-26T15:35:50.311Z,10.27
2019-06-26T15:38:19.891Z,9.83
2019-06-26T15:40:49.557Z,11.83
2019-06-26T15:43:19.122Z,9.90
2019-06-26T15:45:48.639Z,10.05
2019-06-26T15:48:18.062Z,10.18
2019-06-26T15:50:47.445Z,9.63
2019-06-26T15:53:17.007Z,10.08
2019-06-26T15:55:46.443Z,10.40
2019-06-26T15:58:15.950Z,11.12
2019-06-26T16:00:45.935Z,9.88
2019-06-26T16:03:15.534Z,9.77
2019-06-26T16:05:45.161Z,10.97
2019-06-26T16:08:14.642Z,11.20
2019-06-26T16:10:44.262Z,10.50
2019-06-26T16:13:14.660Z,10.43
2019-06-26T16:15:44.183Z,9.03
2019-06-26T16:18:22.551Z,10.13
2019-06-26T16:20:52.040Z,11.37
2019-06-26T16:23:21.528Z,8.43
2019-06-26T16:25:51.061Z,11.57
2019-06-26T16:28:20.638Z,8.63
2019-06-26T16:30:50.145Z,9.63
2019-06-26T16:33:19.654Z,11.93
2019-06-26T16:35:49.192Z,10.83
2019-06-26T16:41:14.465Z,9.23
2019-06-26T16:43:44.179Z,9.53
2019-06-26T16:46:13.714Z,8.87
2019-06-26T16:48:43.199Z,7.00
2019-06-26T16:51:12.739Z,8.70
2019-06-26T16:53:42.243Z,10.33
2019-06-26T16:56:12.138Z,7.73
2019-06-26T17:01:53.210Z,8.80
2019-06-26T17:04:23.795Z,7.73
2019-06-26T17:06:53.301Z,9.80
2019-06-26T17:09:22.835Z,10.07
2019-06-26T17:11:52.308Z,10.03
2019-06-26T17:14:21.869Z,10.50
2019-06-26T17:16:51.360Z,8.60
2019-06-26T17:22:26.656Z,8.33
2019-06-26T17:24:56.384Z,10.20
2019-06-26T17:27:26.014Z,10.13
2019-06-26T17:29:55.516Z,9.63
2019-06-26T17:32:25.248Z,10.13
2019-06-26T17:34:54.983Z,9.03
2019-06-26T17:37:24.563Z,7.90
2019-06-26T17:39:54.604Z,6.83
2019-06-26T17:42:24.243Z,7.57
2019-06-26T17:44:53.855Z,7.77
2019-06-26T17:47:37.471Z,8.13
2019-06-26T17:50:07.971Z,9.27
2019-06-26T17:52:38.580Z,9.93
2019-06-26T17:55:09.102Z,8.43
2019-06-26T17:57:39.712Z,6.20
2019-06-26T18:03:05.425Z,8.17
2019-06-26T18:05:35.083Z,5.73
2019-06-26T18:08:04.742Z,6.30
2019-06-26T18:10:54.056Z,7.70
2019-06-26T18:13:25.119Z,5.37
2019-06-26T18:16:06.704Z,7.80
2019-06-26T18:18:36.298Z,5.83
2019-06-26T18:21:06.357Z,8.63
2019-06-26T18:23:38.776Z,6.20
2019-06-26T18:26:13.470Z,6.07
2019-06-26T18:28:40.725Z,6.27
2019-06-26T18:31:15.612Z,7.30
2019-06-26T18:33:45.346Z,5.40
2019-06-26T18:36:18.536Z,6.43
2019-06-26T18:38:57.403Z,9.63
2019-06-26T18:41:27.013Z,8.10
2019-06-26T18:43:56.754Z,7.03
2019-06-26T18:46:26.370Z,7.13
2019-06-26T18:48:56.845Z,7.47
2019-06-26T18:51:26.579Z,6.97
2019-06-26T18:53:56.480Z,8.33
2019-06-26T18:56:26.404Z,6.27
2019-06-26T18:58:57.437Z,7.43
2019-06-26T19:01:26.876Z,9.47
2019-06-26T19:03:56.584Z,6.33
2019-06-26T19:06:28.580Z,6.70
2019-06-26T19:08:58.224Z,11.07
2019-06-26T19:11:27.777Z,6.63
2019-06-26T19:13:59.342Z,7.07
2019-06-26T19:16:36.539Z,6.90
2019-06-26T19:19:06.680Z,7.00
2019-06-26T19:21:37.169Z,8.17
2019-06-26T19:24:10.310Z,7.97
2019-06-26T19:26:38.529Z,5.57
2019-06-26T19:29:09.106Z,7.83
2019-06-26T19:31:41.196Z,7.33
2019-06-26T19:34:11.000Z,8.60
2019-06-26T19:36:50.199Z,5.73
2019-06-26T19:39:12.043Z,4.97
2019-06-26T19:41:45.093Z,7.77
2019-06-26T19:44:21.400Z,9.50
2019-06-26T19:46:51.326Z,7.27
2019-06-26T19:49:20.916Z,7.13
2019-06-26T19:51:50.572Z,9.07
2019-06-26T19:54:27.018Z,4.87
2019-06-26T19:56:55.193Z,8.30
2019-06-26T19:59:28.099Z,8.00
2019-06-26T20:02:01.457Z,8.67
2019-06-26T20:04:31.117Z,6.90
2019-06-26T20:07:00.727Z,7.60
2019-06-26T20:09:30.325Z,9.10
2019-06-26T20:11:59.870Z,7.10
2019-06-26T20:14:29.655Z,8.93
2019-06-26T20:16:59.314Z,7.37
2019-06-26T20:19:30.232Z,7.90
2019-06-26T20:21:59.832Z,8.07
2019-06-26T20:24:43.048Z,11.50
2019-06-26T20:27:00.571Z,9.30
2019-06-26T20:29:30.074Z,8.53
2019-06-26T20:31:59.625Z,8.73
2019-06-26T20:34:29.343Z,7.37
2019-06-26T20:36:59.188Z,11.97
2019-06-26T20:39:28.709Z,9.10
2019-06-26T20:41:58.226Z,9.60
2019-06-26T20:44:27.739Z,8.27
2019-06-26T20:46:57.334Z,8.57
2019-06-26T20:49:26.876Z,11.43
2019-06-26T20:51:56.296Z,9.13
2019-06-26T20:54:25.771Z,8.23
2019-06-26T20:56:55.297Z,7.27
2019-06-26T20:59:24.834Z,9.23
2019-06-26T21:04:50.127Z,7.27
2019-06-26T21:07:22.125Z,8.63
2019-06-26T21:09:51.771Z,9.30
2019-06-26T21:12:21.264Z,8.90
2019-06-26T21:14:50.776Z,7.73
2019-06-26T21:17:20.287Z,9.97
2019-06-26T21:19:49.712Z,9.40
2019-06-26T21:22:19.284Z,9.30
2019-06-26T21:24:48.754Z,9.93
2019-06-26T21:30:17.142Z,10.30
2019-06-26T21:32:46.609Z,9.83
2019-06-26T21:35:16.074Z,9.53
2019-06-26T21:37:45.553Z,11.10
2019-06-26T21:40:15.383Z,7.43
2019-06-26T21:42:44.968Z,10.07
2019-06-26T21:45:15.375Z,9.13
2019-06-26T21:47:45.157Z,10.13
2019-06-26T21:50:15.046Z,7.17
2019-06-26T21:52:44.594Z,10.40
2019-06-26T21:55:14.284Z,8.47
2019-06-26T21:57:43.955Z,9.43
2019-06-26T22:00:14.050Z,8.03
2019-06-26T22:02:43.892Z,8.37
2019-06-26T22:05:14.270Z,9.30
2019-06-26T22:07:43.884Z,7.87
2019-06-26T22:10:15.334Z,8.53
2019-06-26T22:12:44.950Z,9.63
2019-06-26T22:15:15.869Z,9.50
2019-06-26T22:17:45.434Z,8.67
2019-06-26T22:20:16.515Z,8.50
2019-06-26T22:22:46.160Z,9.50
2019-06-26T22:25:16.064Z,8.60
2019-06-26T22:27:47.372Z,6.43
2019-06-26T22:30:17.054Z,7.77
2019-06-26T22:32:46.627Z,7.57
2019-06-26T22:35:16.211Z,8.33
2019-06-26T22:37:45.767Z,8.23
2019-06-26T22:40:15.269Z,5.90
2019-06-26T22:42:44.926Z,6.40
2019-06-26T22:45:14.597Z,6.70
2019-06-26T22:47:44.147Z,9.03
2019-06-26T22:50:13.905Z,6.37
2019-06-26T22:52:43.474Z,8.47
2019-06-26T22:57:59.154Z,7.67
2019-06-26T23:00:30.117Z,9.90
2019-06-26T23:02:59.600Z,7.20
2019-06-26T23:05:29.141Z,7.40
2019-06-26T23:07:58.601Z,9.10
2019-06-26T23:15:59.791Z,7.03
2019-06-26T23:18:29.615Z,10.37
2019-06-26T23:20:59.055Z,8.33
2019-06-26T23:23:28.537Z,7.20
2019-06-26T23:25:57.959Z,7.13
2019-06-26T23:28:27.463Z,7.20
2019-06-26T23:30:56.933Z,7.13
2019-06-26T23:33:27.031Z,7.90
2019-06-26T23:35:56.502Z,8.60
2019-06-26T23:38:25.984Z,9.87
2019-06-26T23:40:55.444Z,6.90
2019-06-26T23:43:24.992Z,9.67
2019-06-26T23:45:54.685Z,7.27
2019-06-26T23:48:24.127Z,7.07
2019-06-26T23:50:53.592Z,9.13
2019-06-26T23:53:23.419Z,7.33
2019-06-26T23:55:52.908Z,7.43
2019-06-26T23:58:22.937Z,9.73
